KOSU/OSU METAR and TAF weather

Enter ICAO airport designator
Station Type Date Time Source
KOSU METAR 2020/07/12 02:53 UTC NOAA

KOSU 120253Z 26008KT 10SM CLR 25/17 A2983 RMK AO2 SLP095 T02500172 53008


Station Type Date Time Source
KOSU Decoded METAR 2020/07/12 02:53 UTC NOAA

OHIO STATE UNIVERSITY AIRPORT , OH, United States (KOSU) 40-05N 083-05W 280M
Jul 11, 2020 - 10:53 PM EDT / 2020.07.12 0253 UTC
Wind: from the W (260 degrees) at 9 MPH (8 KT):0
Visibility: 10 mile(s):0
Sky conditions: clear
Temperature: 77.0 F (25.0 C)
Dew Point: 63.0 F (17.2 C)
Relative Humidity: 61%
Pressure (altimeter): 29.83 in. Hg (1010 hPa)
Pressure tendency: 0.02 inches (0.8 hPa) higher than three hours ago
ob: KOSU 120253Z 26008KT 10SM CLR 25/17 A2983 RMK AO2 SLP095 T02500172 53008
cycle: 3

Station Type Date Time Source
KOSU TAF UTC NOAA

Error!

Example: see airport list